Time;durP1;ratioP1;P1;durP2;ratioP2;P2;SDS_P1;SDS_P2;PMS_P1;PMS_P2;Temp;Humidity;BMP_temperature;BMP_pressure;BME280_temperature;BME280_humidity;BME280_pressure;Samples;Min_cycle;Max_cycle;Signal;HPM_P1;HPM_P2
2021/08/02 00:02:49;;;;;;;5.05;3.33;;;;;;;23.94;50.59;101028.06;5017585;28;20028;-60
2021/08/02 00:05:16;;;;;;;5.68;3.95;;;;;;;23.94;51.03;101025.31;5035234;28;20036;-60
2021/08/02 00:07:43;;;;;;;5.53;4.07;;;;;;;23.93;50.92;101029.09;5035406;28;20030;-60
2021/08/02 00:10:13;;;;;;;4.25;3.65;;;;;;;23.90;50.58;101030.38;5034572;28;20022;-60
2021/08/02 00:13:08;;;;;;;5.43;4.00;;;;;;;23.91;50.64;101026.59;5035053;28;20128;-60
2021/08/02 00:15:33;;;;;;;4.55;3.63;;;;;;;23.92;50.64;101038.38;5035495;28;20080;-61
2021/08/02 00:17:59;;;;;;;5.18;3.42;;;;;;;23.92;50.56;101038.38;5033766;28;20021;-60
2021/08/02 00:20:29;;;;;;;5.85;3.85;;;;;;;23.93;51.11;101034.59;5035183;28;20033;-60
2021/08/02 00:22:59;;;;;;;8.00;3.72;;;;;;;23.93;50.62;101034.59;5035073;28;20488;-61
2021/08/02 00:25:26;;;;;;;9.15;3.25;;;;;;;23.93;51.12;101046.38;5033673;28;20026;-60
2021/08/02 00:27:52;;;;;;;5.88;4.38;;;;;;;23.93;50.31;101031.84;5035028;28;20029;-60
2021/08/02 00:30:18;;;;;;;4.65;3.38;;;;;;;23.95;50.57;101032.50;5033797;28;20096;-61
2021/08/02 00:32:43;;;;;;;4.47;3.05;;;;;;;23.96;50.27;101039.63;5034773;28;20466;-60
2021/08/02 00:35:09;;;;;;;5.25;4.07;;;;;;;23.93;50.31;101040.91;5033233;28;20060;-60
2021/08/02 00:37:56;;;;;;;5.20;3.78;;;;;;;23.95;50.59;101038.81;5035142;28;20155;-60
2021/08/02 00:40:42;;;;;;;4.47;3.38;;;;;;;23.95;51.13;101038.81;5033630;28;20048;-60
2021/08/02 00:43:30;;;;;;;6.07;3.15;;;;;;;23.95;50.70;101038.81;5033288;28;20037;-61
2021/08/02 00:45:56;;;;;;;5.07;3.60;;;;;;;23.97;51.27;101035.84;5034395;28;20072;-61
2021/08/02 00:48:27;;;;;;;4.55;3.42;;;;;;;23.96;51.36;101034.16;5033194;28;20065;-61
2021/08/02 00:50:53;;;;;;;4.30;2.95;;;;;;;23.97;50.40;101030.38;5033528;28;20021;-61
2021/08/02 00:53:23;;;;;;;6.85;3.95;;;;;;;23.98;50.99;101032.06;5034783;28;20120;-61
2021/08/02 00:55:56;;;;;;;5.85;3.72;;;;;;;23.99;51.01;101033.75;5034958;28;20029;-61
2021/08/02 00:58:24;;;;;;;6.57;3.75;;;;;;;23.98;50.92;101026.59;5034466;28;20047;-61
2021/08/02 01:00:51;;;;;;;10.82;3.88;;;;;;;23.96;50.96;101025.94;5034702;28;20029;-61
2021/08/02 01:03:17;;;;;;;7.13;3.70;;;;;;;23.99;51.16;101031.00;5034683;28;20025;-60
2021/08/02 01:05:49;;;;;;;7.07;4.00;;;;;;;23.99;51.28;101033.75;5033056;28;20374;-61
2021/08/02 01:08:18;;;;;;;5.60;3.70;;;;;;;23.99;51.30;101039.22;5034260;28;20029;-61
2021/08/02 01:10:46;;;;;;;5.60;4.13;;;;;;;23.98;50.72;101040.28;5034041;28;20028;-60
2021/08/02 01:13:13;;;;;;;6.53;3.95;;;;;;;23.97;50.94;101047.66;5034508;28;20108;-60
2021/08/02 01:15:44;;;;;;;5.38;3.97;;;;;;;23.86;50.48;101022.81;5034162;28;20021;-61
2021/08/02 01:18:12;;;;;;;6.80;3.70;;;;;;;23.93;50.29;101040.06;5033874;28;20029;-60
2021/08/02 01:20:42;;;;;;;6.63;3.97;;;;;;;23.94;50.46;101044.47;5034116;28;20080;-61
2021/08/02 01:23:09;;;;;;;8.98;3.70;;;;;;;23.95;51.36;101043.44;5032939;28;20055;-61
2021/08/02 01:25:37;;;;;;;6.13;3.42;;;;;;;23.95;50.43;101051.66;5033765;28;20499;-60
2021/08/02 01:28:14;;;;;;;9.77;3.35;;;;;;;23.94;50.25;101048.06;5033800;28;20026;-61
2021/08/02 01:30:49;;;;;;;5.13;3.05;;;;;;;23.92;51.33;101047.44;5034088;28;20381;-60
2021/08/02 01:33:16;;;;;;;8.40;2.97;;;;;;;23.92;50.73;101049.34;5033602;28;20026;-60
2021/08/02 01:35:42;;;;;;;4.28;3.00;;;;;;;23.91;50.56;101042.16;5033058;28;20030;-60
2021/08/02 01:38:08;;;;;;;8.25;2.95;;;;;;;23.90;50.18;101045.97;5033762;28;20363;-60
2021/08/02 01:40:33;;;;;;;6.50;3.13;;;;;;;23.91;50.16;101053.13;5033929;28;20104;-60
2021/08/02 01:43:06;;;;;;;8.30;3.15;;;;;;;23.91;50.63;101053.13;5032752;28;20069;-60
2021/08/02 01:45:48;;;;;;;5.85;3.53;;;;;;;23.90;50.75;101045.97;5033932;28;20101;-60
2021/08/02 01:48:20;;;;;;;9.13;3.63;;;;;;;23.87;50.76;101030.78;5033657;28;20028;-60
2021/08/02 01:50:45;;;;;;;5.72;3.40;;;;;;;23.87;51.05;101030.78;5033810;28;20063;-60
2021/08/02 01:53:18;;;;;;;6.05;3.55;;;;;;;23.88;50.96;101043.44;5033791;28;20079;-61
2021/08/02 01:55:48;;;;;;;4.85;2.83;;;;;;;23.84;50.57;101036.72;5032445;28;20030;-60
2021/08/02 01:58:15;;;;;;;7.88;3.38;;;;;;;23.89;50.65;101041.53;5033783;28;20018;-60
2021/08/02 02:00:43;;;;;;;5.53;3.40;;;;;;;23.85;50.26;101032.91;5032295;28;20036;-60
2021/08/02 02:03:15;;;;;;;7.68;3.22;;;;;;;23.86;50.17;101042.81;5032130;28;20030;-60
2021/08/02 02:05:44;;;;;;;5.93;3.55;;;;;;;23.85;51.03;101032.91;5032438;28;20030;-60
2021/08/02 02:08:16;;;;;;;7.75;3.60;;;;;;;23.84;50.06;101031.25;5032167;28;20037;-60
2021/08/02 02:10:47;;;;;;;5.68;3.25;;;;;;;23.80;50.17;101029.13;5015548;28;20029;-60
2021/08/02 02:13:19;;;;;;;6.25;3.33;;;;;;;23.81;50.09;101037.13;5032691;28;20025;-60
2021/08/02 02:15:48;;;;;;;4.72;2.88;;;;;;;23.75;50.17;101027.88;5032067;28;20029;-61
2021/08/02 02:18:15;;;;;;;4.95;3.30;;;;;;;23.74;50.12;101026.19;5033549;28;20112;-60
2021/08/02 02:20:43;;;;;;;5.65;2.80;;;;;;;23.77;50.55;101041.31;5032393;28;20029;-60
2021/08/02 02:23:09;;;;;;;8.00;3.85;;;;;;;23.74;50.41;101036.28;5031953;28;20082;-60
2021/08/02 02:25:34;;;;;;;9.95;3.20;;;;;;;23.75;50.82;101033.34;5032364;28;20029;-59
2021/08/02 02:28:00;;;;;;;8.63;2.85;;;;;;;23.73;50.09;101035.44;5032018;28;20374;-60
2021/08/02 02:30:25;;;;;;;7.47;3.00;;;;;;;23.71;50.22;101026.59;5033340;28;20067;-60
2021/08/02 02:32:52;;;;;;;6.50;2.50;;;;;;;23.70;50.04;101035.84;5033291;28;20033;-60
2021/08/02 02:35:18;;;;;;;10.05;3.10;;;;;;;23.65;50.15;101035.63;5032084;28;20524;-60
2021/08/02 02:37:43;;;;;;;7.97;3.33;;;;;;;23.67;50.70;101039.00;5032215;28;20029;-60
2021/08/02 02:40:09;;;;;;;6.57;3.33;;;;;;;23.64;50.19;101036.72;5032337;28;20030;-60
2021/08/02 02:42:35;;;;;;;6.22;2.80;;;;;;;23.61;49.82;101028.91;5031928;28;20034;-61
2021/08/02 02:45:02;;;;;;;6.75;2.47;;;;;;;23.62;50.14;101033.31;5033300;28;20389;-60
2021/08/02 02:47:27;;;;;;;7.35;2.65;;;;;;;23.58;49.86;101026.59;5034374;28;20075;-60
2021/08/02 02:49:53;;;;;;;3.70;2.28;;;;;;;23.58;50.28;101032.06;5037313;28;20029;-60
2021/08/02 02:52:20;;;;;;;8.98;2.65;;;;;;;23.54;49.40;101025.31;5035725;28;20548;-60
2021/08/02 02:54:48;;;;;;;7.28;3.20;;;;;;;23.54;50.44;101030.78;5035224;28;20500;-60
2021/08/02 02:57:14;;;;;;;5.97;2.30;;;;;;;23.53;50.35;101029.13;5035348;28;20108;-60
2021/08/02 02:59:39;;;;;;;5.32;2.40;;;;;;;23.49;49.99;101033.31;5036722;28;20441;-59
2021/08/02 03:02:04;;;;;;;5.63;2.83;;;;;;;23.51;50.01;101035.81;5036416;28;20041;-60
2021/08/02 03:04:38;;;;;;;8.52;2.40;;;;;;;23.47;49.69;101034.56;5035416;28;20030;-60
2021/08/02 03:07:04;;;;;;;4.78;2.20;;;;;;;23.46;49.90;101039.19;5035549;28;20048;-61
2021/08/02 03:09:33;;;;;;;4.15;2.00;;;;;;;23.48;50.30;101042.56;5035325;28;20056;-60
2021/08/02 03:11:58;;;;;;;4.10;1.75;;;;;;;23.49;49.98;101038.78;5034613;28;20568;-61
2021/08/02 03:14:24;;;;;;;6.47;1.98;;;;;;;23.47;49.25;101040.88;5036678;28;20037;-60
2021/08/02 03:16:49;;;;;;;5.90;1.90;;;;;;;23.50;49.66;101043.22;5036020;28;20032;-60
2021/08/02 03:19:15;;;;;;;4.65;2.25;;;;;;;23.50;50.14;101045.94;5036399;28;20026;-62
2021/08/02 03:21:40;;;;;;;5.90;2.20;;;;;;;23.49;50.11;101049.72;5035987;28;20033;-62
2021/08/02 03:24:16;;;;;;;3.38;1.83;;;;;;;23.48;50.05;101053.50;5036254;28;20115;-62
2021/08/02 03:26:47;;;;;;;3.67;1.83;;;;;;;23.47;49.55;101046.34;5034782;28;20481;-62
2021/08/02 03:29:20;;;;;;;9.75;1.63;;;;;;;23.45;49.48;101056.63;5036051;28;20021;-62
2021/08/02 03:31:59;;;;;;;5.90;2.00;;;;;;;23.47;50.01;101057.28;5034987;28;20466;-61
2021/08/02 03:34:28;;;;;;;6.68;1.50;;;;;;;23.47;49.52;101051.81;5034598;28;20497;-60
2021/08/02 03:36:54;;;;;;;5.55;3.30;;;;;;;23.48;48.79;101052.69;5035600;28;20033;-59
2021/08/02 03:39:22;;;;;;;4.88;1.70;;;;;;;23.46;49.97;101050.13;5036280;28;20462;-62
2021/08/02 03:41:48;;;;;;;3.08;1.40;;;;;;;23.46;49.67;101058.34;5034789;28;20053;-62
2021/08/02 03:44:14;;;;;;;5.22;1.92;;;;;;;23.43;49.01;101050.53;5034421;28;20103;-62
2021/08/02 03:46:41;;;;;;;5.00;1.45;;;;;;;23.46;49.70;101055.59;5034498;28;20021;-60
2021/08/02 03:49:06;;;;;;;1.75;1.50;;;;;;;23.42;49.52;101054.31;5034640;28;20029;-62
2021/08/02 03:52:08;;;;;;;4.95;1.90;;;;;;;23.44;49.21;101059.59;5035938;28;20021;-62
2021/08/02 03:54:33;;;;;;;7.13;1.67;;;;;;;23.43;48.93;101055.16;5036019;28;20370;-61
2021/08/02 03:57:00;;;;;;;4.22;1.52;;;;;;;23.41;49.65;101063.59;5035357;28;20029;-61
2021/08/02 03:59:26;;;;;;;4.97;1.90;;;;;;;23.41;49.16;101070.94;5033479;28;20428;-61
2021/08/02 04:01:52;;;;;;;6.97;1.83;;;;;;;23.39;49.87;101071.16;5035480;28;20115;-61
2021/08/02 04:04:17;;;;;;;8.48;1.65;;;;;;;23.38;49.62;101068.63;5035472;28;20073;-61
2021/08/02 04:06:42;;;;;;;5.53;1.52;;;;;;;23.36;48.85;101076.16;5035749;28;20024;-61
2021/08/02 04:09:10;;;;;;;4.00;1.85;;;;;;;23.33;49.69;101071.97;5035344;28;20160;-61
2021/08/02 04:11:36;;;;;;;3.55;1.85;;;;;;;23.29;49.38;101069.81;5034971;28;20095;-61
2021/08/02 04:14:02;;;;;;;4.90;1.45;;;;;;;23.32;49.06;101086.66;5034053;28;20029;-61
2021/08/02 04:16:27;;;;;;;6.47;1.70;;;;;;;23.26;49.70;101081.16;5033591;28;20036;-61
2021/08/02 04:18:53;;;;;;;3.47;1.55;;;;;;;23.28;49.86;101085.41;5035107;28;20026;-61
2021/08/02 04:21:18;;;;;;;5.22;1.98;;;;;;;23.29;49.58;101083.50;5035212;28;20025;-61
2021/08/02 04:23:45;;;;;;;9.60;2.05;;;;;;;23.25;50.19;101080.34;5033568;28;20390;-61
2021/08/02 04:26:12;;;;;;;8.30;2.00;;;;;;;23.28;50.14;101084.56;5035140;28;20029;-61
2021/08/02 04:28:38;;;;;;;2.40;1.20;;;;;;;23.28;49.96;101090.88;5034815;28;20025;-61
2021/08/02 04:31:04;;;;;;;6.05;2.30;;;;;;;23.28;49.59;101087.28;5035019;28;20473;-61
2021/08/02 04:33:29;;;;;;;10.48;3.05;;;;;;;23.27;50.22;101083.72;5035432;28;20067;-61
2021/08/02 04:35:55;;;;;;;5.57;2.05;;;;;;;23.23;49.15;101082.41;5034837;28;20032;-61
2021/08/02 04:38:20;;;;;;;8.77;1.65;;;;;;;23.26;49.60;101084.75;5033362;28;20114;-60
2021/08/02 04:40:45;;;;;;;3.78;1.50;;;;;;;23.26;49.06;101087.47;5034838;28;20370;-61
2021/08/02 04:43:11;;;;;;;3.78;1.65;;;;;;;23.22;49.78;101078.03;5035088;28;20088;-61
2021/08/02 04:45:36;;;;;;;5.55;1.90;;;;;;;23.25;49.99;101090.44;5034785;28;20021;-61
2021/08/02 04:48:01;;;;;;;4.35;1.95;;;;;;;23.24;49.57;101091.47;5016702;28;20445;-61
2021/08/02 04:50:27;;;;;;;7.05;1.65;;;;;;;23.26;49.23;101098.41;5034631;28;20018;-61
2021/08/02 04:52:52;;;;;;;5.60;1.52;;;;;;;23.25;49.83;101090.44;5034462;28;20053;-60
2021/08/02 04:55:18;;;;;;;5.10;2.30;;;;;;;23.26;49.67;101090.22;5034446;28;20466;-60
2021/08/02 04:57:44;;;;;;;4.82;2.13;;;;;;;23.28;50.03;101096.34;5034564;28;20021;-61
2021/08/02 05:00:10;;;;;;;7.15;3.03;;;;;;;23.32;49.36;101102.22;5034476;28;20043;-61
2021/08/02 05:02:35;;;;;;;4.63;1.92;;;;;;;23.31;49.74;101095.09;5034514;28;20022;-61
2021/08/02 05:05:00;;;;;;;3.33;1.80;;;;;;;23.36;49.14;101104.34;5034951;28;20470;-61
2021/08/02 05:07:26;;;;;;;1.80;1.48;;;;;;;23.39;50.24;101103.13;5034119;28;20029;-61
2021/08/02 05:09:51;;;;;;;4.03;1.42;;;;;;;23.37;49.65;101094.22;5034214;28;20108;-61
2021/08/02 05:12:17;;;;;;;4.85;2.70;;;;;;;23.44;49.97;101106.09;5033957;28;20049;-61
2021/08/02 05:14:42;;;;;;;5.10;1.92;;;;;;;23.44;49.58;101106.09;5034314;28;20025;-61
2021/08/02 05:17:08;;;;;;;6.57;1.70;;;;;;;23.46;49.94;101104.81;5032781;28;20037;-61
2021/08/02 05:19:34;;;;;;;6.65;1.85;;;;;;;23.48;49.71;101099.97;5033973;28;20025;-61
2021/08/02 05:21:59;;;;;;;3.92;2.10;;;;;;;23.47;49.34;101087.38;5034256;28;20039;-61
2021/08/02 05:24:25;;;;;;;6.22;2.80;;;;;;;23.55;49.12;101103.59;5032998;28;20033;-61
2021/08/02 05:26:50;;;;;;;3.80;2.60;;;;;;;23.59;49.20;101104.84;5034133;28;20370;-61
2021/08/02 05:29:15;;;;;;;4.80;2.08;;;;;;;23.63;49.60;101110.75;5033756;28;20025;-61
2021/08/02 05:31:41;;;;;;;6.57;3.13;;;;;;;23.65;49.23;101092.22;5034370;28;20040;-61
2021/08/02 05:34:06;;;;;;;3.30;1.70;;;;;;;23.70;49.38;101101.50;5033860;28;20029;-61
2021/08/02 05:36:31;;;;;;;3.63;1.90;;;;;;;23.74;49.38;101105.53;5033746;28;20494;-60
2021/08/02 05:38:57;;;;;;;6.70;2.30;;;;;;;23.75;49.30;101103.63;5033949;28;20470;-61
2021/08/02 05:41:22;;;;;;;5.57;1.60;;;;;;;23.74;48.57;101107.41;5033959;28;20021;-61
2021/08/02 05:43:47;;;;;;;6.22;1.63;;;;;;;23.76;48.66;101111.63;5033834;28;20033;-61
2021/08/02 05:46:13;;;;;;;6.20;1.50;;;;;;;23.76;48.45;101105.28;5033824;28;20026;-61
2021/08/02 05:48:38;;;;;;;10.15;1.70;;;;;;;23.76;48.52;101119.81;5033555;28;20025;-61
2021/08/02 05:51:04;;;;;;;3.97;1.95;;;;;;;23.74;48.71;101113.72;5033760;28;20025;-62
2021/08/02 05:53:29;;;;;;;3.20;1.60;;;;;;;23.74;48.70;101132.03;5033597;28;20029;-61
2021/08/02 05:55:55;;;;;;;3.88;1.63;;;;;;;23.73;48.98;101139.38;5033808;28;20032;-61
2021/08/02 05:58:20;;;;;;;5.95;1.88;;;;;;;23.72;49.00;101143.19;5033500;28;20053;-61
2021/08/02 06:00:45;;;;;;;8.10;1.77;;;;;;;23.70;48.90;101145.28;5033663;28;20030;-61
2021/08/02 06:03:11;;;;;;;8.07;2.13;;;;;;;23.66;48.50;101137.69;5033696;28;20025;-61
2021/08/02 06:05:36;;;;;;;4.53;2.05;;;;;;;23.67;48.97;101140.22;5033416;28;20102;-61
2021/08/02 06:08:01;;;;;;;10.05;2.00;;;;;;;23.67;48.00;101147.59;5032404;28;20116;-61
2021/08/02 06:10:27;;;;;;;3.58;1.70;;;;;;;23.66;48.49;101152.22;5033827;28;20025;-61
2021/08/02 06:12:52;;;;;;;4.78;1.48;;;;;;;23.62;47.91;101141.88;5032992;28;20128;-61
2021/08/02 06:15:18;;;;;;;7.78;2.60;;;;;;;23.64;48.89;101151.59;5033966;28;20025;-61
2021/08/02 06:17:43;;;;;;;4.78;1.00;;;;;;;23.61;48.91;101156.63;5033959;28;20505;-61
2021/08/02 06:20:09;;;;;;;4.00;1.30;;;;;;;23.57;48.82;101150.72;5033778;28;20080;-61
2021/08/02 06:22:35;;;;;;;3.00;1.65;;;;;;;23.55;48.27;101152.81;5033726;28;20117;-61
2021/08/02 06:25:00;;;;;;;6.13;1.55;;;;;;;23.53;47.50;101146.72;5036270;28;20057;-61
2021/08/02 06:27:30;;;;;;;2.85;1.25;;;;;;;23.57;47.98;101145.25;5037076;28;20029;-61
2021/08/02 06:29:58;;;;;;;3.97;1.52;;;;;;;23.58;48.06;101151.56;5037276;28;20088;-61
2021/08/02 06:32:24;;;;;;;3.03;1.45;;;;;;;23.61;47.66;101152.00;5037302;28;20112;-61
2021/08/02 06:34:50;;;;;;;2.88;2.35;;;;;;;23.57;47.75;101155.34;5037411;28;20406;-61
2021/08/02 06:37:16;;;;;;;3.08;1.13;;;;;;;23.56;48.18;101157.22;5036003;28;20029;-61
2021/08/02 06:39:41;;;;;;;3.80;1.40;;;;;;;23.56;49.00;101159.97;5035645;28;20075;-61
2021/08/02 06:42:06;;;;;;;7.22;1.75;;;;;;;23.54;48.68;101161.22;5037032;28;20036;-61
2021/08/02 06:44:32;;;;;;;4.53;2.28;;;;;;;23.52;47.74;101164.19;5037005;28;20021;-61
2021/08/02 06:46:57;;;;;;;4.05;1.98;;;;;;;23.54;48.34;101167.53;5036768;28;20112;-61
2021/08/02 06:49:22;;;;;;;7.43;2.30;;;;;;;23.54;48.77;101170.28;5037224;28;20031;-61
2021/08/02 06:51:48;;;;;;;2.72;1.95;;;;;;;23.54;48.43;101163.97;5036863;28;20018;-62
2021/08/02 06:54:13;;;;;;;2.80;2.00;;;;;;;23.58;48.03;101174.31;5037216;28;20025;-61
2021/08/02 06:56:38;;;;;;;3.83;1.83;;;;;;;23.56;47.78;101159.16;5036640;28;20056;-60
2021/08/02 06:59:04;;;;;;;3.95;1.75;;;;;;;23.63;48.28;101176.41;5035254;28;20021;-61
2021/08/02 07:01:29;;;;;;;5.13;1.67;;;;;;;23.64;47.38;101168.00;5036816;28;20470;-61
2021/08/02 07:03:55;;;;;;;4.75;1.98;;;;;;;23.69;48.10;101165.50;5018647;28;20026;-61
2021/08/02 07:06:20;;;;;;;8.20;1.80;;;;;;;23.77;47.73;101173.50;5037070;28;20021;-61
2021/08/02 07:08:45;;;;;;;5.78;1.83;;;;;;;23.87;46.69;101178.56;5036338;28;20501;-60
2021/08/02 07:11:11;;;;;;;6.60;2.33;;;;;;;23.93;47.05;101175.00;5034957;28;20025;-61
2021/08/02 07:13:36;;;;;;;6.25;1.50;;;;;;;23.94;47.77;101167.66;5036675;28;20104;-61
2021/08/02 07:16:02;;;;;;;4.25;1.77;;;;;;;23.97;46.86;101169.97;5036469;28;20025;-61
2021/08/02 07:18:31;;;;;;;6.90;1.42;;;;;;;24.01;46.75;101174.00;5037239;28;20442;-61
2021/08/02 07:20:56;;;;;;;8.98;1.33;;;;;;;24.03;47.31;101175.47;5036717;28;20082;-61
2021/08/02 07:23:21;;;;;;;3.50;1.73;;;;;;;24.08;46.39;101163.88;5036300;28;20468;-61
2021/08/02 07:25:47;;;;;;;2.90;1.15;;;;;;;24.12;46.11;101170.66;5036199;28;20523;-61
2021/08/02 07:28:12;;;;;;;4.90;1.42;;;;;;;24.16;46.06;101177.38;5036570;28;20033;-61
2021/08/02 07:30:38;;;;;;;9.05;1.60;;;;;;;24.19;46.91;101176.97;5036187;28;20021;-61
2021/08/02 07:33:03;;;;;;;4.97;1.40;;;;;;;24.18;46.14;101175.28;5035525;28;20033;-61
2021/08/02 07:35:29;;;;;;;2.10;1.05;;;;;;;24.17;46.43;101176.34;5035388;28;20029;-61
2021/08/02 07:37:55;;;;;;;3.40;1.05;;;;;;;24.19;46.23;101187.94;5036567;28;20446;-61
2021/08/02 07:40:20;;;;;;;3.13;0.85;;;;;;;24.18;45.58;101186.22;5036238;28;20028;-61
2021/08/02 07:42:45;;;;;;;3.30;0.80;;;;;;;24.17;45.59;101184.56;5035754;28;20509;-61
2021/08/02 07:45:11;;;;;;;1.13;0.65;;;;;;;24.18;46.17;101186.22;5035714;28;20037;-61
2021/08/02 07:47:36;;;;;;;1.23;0.52;;;;;;;24.19;46.00;101196.13;5034346;28;20466;-61
2021/08/02 07:50:04;;;;;;;1.02;0.40;;;;;;;24.20;46.25;101200.56;5035066;28;20025;-60
2021/08/02 07:52:31;;;;;;;15.70;13.63;;;;;;;24.21;46.31;101192.13;5036087;28;20504;-61
2021/08/02 07:54:57;;;;;;;7.63;4.93;;;;;;;24.23;46.25;101200.16;5035732;28;20071;-60
2021/08/02 07:57:22;;;;;;;1.90;1.17;;;;;;;24.25;46.19;101201.63;5035981;28;20454;-61
2021/08/02 07:59:47;;;;;;;2.78;1.00;;;;;;;24.31;45.33;101197.22;5035885;28;20397;-62
2021/08/02 08:02:13;;;;;;;5.35;1.85;;;;;;;24.35;46.15;101198.47;5034127;28;20028;-62
2021/08/02 08:04:38;;;;;;;2.95;1.60;;;;;;;24.31;45.94;101197.22;5035202;28;20125;-61
2021/08/02 08:07:03;;;;;;;3.97;2.08;;;;;;;24.39;46.52;101198.91;5035495;28;20033;-62
2021/08/02 08:09:29;;;;;;;3.63;1.52;;;;;;;24.41;46.16;101203.09;5035446;28;20032;-61
2021/08/02 08:11:54;;;;;;;3.92;1.38;;;;;;;24.42;45.71;101204.81;5035113;28;20064;-61
2021/08/02 08:14:19;;;;;;;7.43;2.20;;;;;;;24.40;46.37;101206.06;5035110;28;20026;-61
2021/08/02 08:16:45;;;;;;;5.35;2.10;;;;;;;24.35;46.03;101203.94;5035219;28;20021;-61
2021/08/02 08:19:10;;;;;;;3.25;2.22;;;;;;;24.31;45.87;101200.81;5033779;28;20029;-60
2021/08/02 08:21:36;;;;;;;4.63;1.25;;;;;;;24.18;46.06;101195.28;5035205;28;20021;-61
2021/08/02 08:24:05;;;;;;;2.40;0.98;;;;;;;24.24;45.88;101207.31;5033734;28;20155;-60
2021/08/02 08:26:31;;;;;;;2.72;1.42;;;;;;;24.21;46.21;101203.09;5035230;28;20485;-61
2021/08/02 08:28:57;;;;;;;3.90;1.60;;;;;;;24.23;45.97;101209.19;5034802;28;20021;-61
2021/08/02 08:31:22;;;;;;;2.22;1.42;;;;;;;24.21;46.37;101211.31;5035430;28;20040;-61
2021/08/02 08:33:49;;;;;;;4.32;2.00;;;;;;;24.18;47.11;101213.59;5033353;28;20031;-60
2021/08/02 08:36:16;;;;;;;4.00;1.55;;;;;;;24.07;46.91;101195.88;5033720;28;20079;-62
2021/08/02 08:38:42;;;;;;;14.10;2.83;;;;;;;24.02;47.29;101203.03;5035171;28;20045;-62
2021/08/02 08:41:07;;;;;;;4.93;2.15;;;;;;;24.00;47.53;101216.94;5034835;28;20021;-61
2021/08/02 08:43:33;;;;;;;5.75;1.58;;;;;;;23.95;47.39;101207.66;5034523;28;20025;-61
2021/08/02 08:45:58;;;;;;;3.15;2.35;;;;;;;23.90;46.91;101208.25;5033204;28;20028;-61
2021/08/02 08:48:23;;;;;;;2.33;1.50;;;;;;;23.86;47.09;101214.38;5033564;28;20029;-61
2021/08/02 08:50:49;;;;;;;2.55;1.35;;;;;;;23.80;47.08;101212.44;5034983;28;20026;-61
2021/08/02 08:53:20;;;;;;;1.25;1.05;;;;;;;23.77;47.76;101210.97;5016648;28;20079;-60
2021/08/02 08:55:45;;;;;;;3.42;1.20;;;;;;;23.75;47.74;101208.44;5034495;28;20112;-62
2021/08/02 08:58:11;;;;;;;5.63;1.55;;;;;;;23.81;47.32;101211.41;5034550;28;20082;-61
2021/08/02 09:00:37;;;;;;;3.40;1.65;;;;;;;23.85;47.13;101208.03;5034458;28;20021;-60
2021/08/02 09:03:29;;;;;;;3.45;1.25;;;;;;;23.90;46.86;101212.91;5034136;28;20059;-61
2021/08/02 09:06:04;;;;;;;4.10;1.60;;;;;;;23.99;47.37;101217.13;5033315;28;20078;-61
2021/08/02 09:08:30;;;;;;;4.22;1.33;;;;;;;24.03;47.25;101215.66;5034508;28;20492;-61
2021/08/02 09:11:00;;;;;;;5.18;2.10;;;;;;;24.10;46.88;101219.28;5034057;28;20029;-61
2021/08/02 09:13:34;;;;;;;2.70;1.70;;;;;;;24.15;46.80;101219.50;5033754;28;20098;-61
2021/08/02 09:16:25;;;;;;;1.58;1.20;;;;;;;24.17;47.04;101222.91;5034217;28;20025;-61
2021/08/02 09:19:04;;;;;;;3.58;1.52;;;;;;;24.18;46.78;101210.88;5033967;28;20124;-60
2021/08/02 09:21:51;;;;;;;4.43;1.23;;;;;;;24.19;47.29;101221.63;5034217;28;20029;-60
2021/08/02 09:24:30;;;;;;;1.75;1.10;;;;;;;24.18;46.77;101216.34;4995265;28;20061;-61
2021/08/02 09:26:55;;;;;;;1.95;1.02;;;;;;;24.26;46.70;101221.66;4994737;28;20036;-61
2021/08/02 09:29:28;;;;;;;2.28;1.23;;;;;;;24.30;47.00;101222.91;4994429;28;20034;-60
2021/08/02 09:31:53;;;;;;;2.45;1.35;;;;;;;24.30;46.64;101217.44;4993211;28;20077;-60
2021/08/02 09:34:22;;;;;;;3.55;1.40;;;;;;;24.39;46.83;101221.66;4993351;28;20117;-60
2021/08/02 09:36:53;;;;;;;2.92;1.00;;;;;;;24.41;46.69;101225.00;4994941;28;20026;-60
2021/08/02 09:39:19;;;;;;;3.55;1.48;;;;;;;24.48;47.03;101236.84;4994326;28;20044;-60
2021/08/02 09:41:44;;;;;;;2.17;1.15;;;;;;;24.52;46.94;101227.13;4994566;28;20034;-60
2021/08/02 09:44:22;;;;;;;5.80;1.17;;;;;;;24.57;46.19;101223.75;4993378;28;20402;-61
2021/08/02 09:47:00;;;;;;;3.17;1.30;;;;;;;24.62;46.76;101216.56;4994497;28;20023;-60
2021/08/02 09:49:26;;;;;;;2.28;1.10;;;;;;;24.68;45.88;101231.38;4994491;28;20121;-60
2021/08/02 09:51:52;;;;;;;6.68;1.25;;;;;;;24.75;46.12;101227.56;4992974;28;20061;-61
2021/08/02 09:54:28;;;;;;;1.27;1.17;;;;;;;24.81;46.01;101229.47;4994502;28;20463;-60
2021/08/02 09:56:55;;;;;;;1.33;1.05;;;;;;;24.86;46.07;101226.09;4994700;28;20024;-60
2021/08/02 09:59:20;;;;;;;2.28;0.63;;;;;;;24.94;46.13;101225.00;5013306;28;20117;-60
2021/08/02 10:01:48;;;;;;;4.15;1.25;;;;;;;25.02;45.72;101213.81;4997025;28;20057;-60
2021/08/02 10:04:13;;;;;;;1.23;1.13;;;;;;;25.13;45.23;101224.13;4998423;28;20046;-60
2021/08/02 10:06:38;;;;;;;3.22;0.98;;;;;;;25.26;45.66;101224.13;4998482;28;20049;-61
2021/08/02 10:09:05;;;;;;;3.42;1.10;;;;;;;25.36;45.08;101219.00;4998243;28;20034;-61
2021/08/02 10:11:32;;;;;;;5.50;1.58;;;;;;;25.44;45.11;101222.34;4997102;28;20054;-61
2021/08/02 10:13:58;;;;;;;1.40;1.25;;;;;;;25.50;45.53;101220.69;4998197;28;20426;-61
2021/08/02 10:16:28;;;;;;;0.73;0.73;;;;;;;25.55;44.88;101214.53;4997345;28;20101;-61
2021/08/02 10:19:02;;;;;;;2.92;1.10;;;;;;;25.59;45.20;101215.78;4996717;28;20140;-61
2021/08/02 10:21:43;;;;;;;1.15;0.80;;;;;;;25.58;45.11;101217.69;4997947;28;20478;-60
2021/08/02 10:24:09;;;;;;;1.27;0.93;;;;;;;25.66;45.05;101213.84;4996820;28;20475;-61
2021/08/02 10:26:35;;;;;;;2.17;1.13;;;;;;;25.70;44.96;101215.09;4997736;28;20101;-61
2021/08/02 10:29:03;;;;;;;1.92;1.00;;;;;;;25.70;44.37;101207.72;5012768;28;20117;-61
2021/08/02 10:31:41;;;;;;;1.85;0.80;;;;;;;25.80;44.64;101216.31;4998148;28;20022;-61
2021/08/02 10:34:17;;;;;;;4.65;1.20;;;;;;;25.86;44.01;101218.19;4997750;28;20368;-60
2021/08/02 10:36:43;;;;;;;2.65;1.00;;;;;;;25.81;43.73;101223.50;4997429;28;20022;-61
2021/08/02 10:39:19;;;;;;;1.13;0.80;;;;;;;25.79;44.31;101214.66;4997506;28;20154;-61
2021/08/02 10:41:45;;;;;;;2.17;1.00;;;;;;;25.79;44.01;101213.81;4996164;28;20046;-60
2021/08/02 10:44:15;;;;;;;1.98;1.00;;;;;;;25.76;43.80;101217.81;4997689;28;20411;-60
2021/08/02 10:46:40;;;;;;;2.88;1.25;;;;;;;25.79;44.36;101219.28;4997617;28;20026;-60
2021/08/02 10:49:12;;;;;;;2.30;1.35;;;;;;;25.81;44.02;101217.16;4996359;28;20022;-60
2021/08/02 10:51:44;;;;;;;2.63;1.67;;;;;;;25.88;43.47;101226.22;4997263;28;20033;-59
2021/08/02 10:54:11;;;;;;;1.83;0.90;;;;;;;25.88;43.82;101217.97;4997512;28;20089;-61
2021/08/02 10:56:36;;;;;;;1.75;1.30;;;;;;;25.90;43.73;101227.69;4997456;28;20069;-60
2021/08/02 10:59:02;;;;;;;2.20;1.52;;;;;;;25.90;43.27;101221.34;4996287;28;20116;-60
2021/08/02 11:01:28;;;;;;;4.05;1.67;;;;;;;25.92;43.07;101228.28;4997059;28;20026;-61
2021/08/02 11:03:55;;;;;;;1.75;1.25;;;;;;;25.94;43.27;101220.66;4997605;28;20034;-61
2021/08/02 11:06:20;;;;;;;1.67;1.33;;;;;;;25.98;43.11;101215.59;5012411;28;20023;-62
2021/08/02 11:08:52;;;;;;;2.85;1.35;;;;;;;26.02;43.02;101223.16;4997238;28;20053;-61
2021/08/02 11:11:20;;;;;;;3.55;1.25;;;;;;;26.05;43.06;101217.22;4995410;28;20029;-61
2021/08/02 11:13:46;;;;;;;1.50;1.08;;;;;;;26.11;42.80;101212.75;4997035;28;20042;-61
2021/08/02 11:16:11;;;;;;;1.48;1.23;;;;;;;26.18;43.08;101219.09;4995515;28;20054;-61
2021/08/02 11:18:41;;;;;;;1.33;1.23;;;;;;;26.23;43.10;101213.75;4995610;28;20113;-61
2021/08/02 11:21:06;;;;;;;2.63;1.50;;;;;;;26.26;42.60;101220.72;4997274;28;20037;-61
2021/08/02 11:23:34;;;;;;;3.45;2.17;;;;;;;26.29;42.50;101218.38;4996933;28;20034;-61
2021/08/02 11:26:10;;;;;;;2.95;2.10;;;;;;;26.35;42.79;101208.41;4996654;28;20018;-61
2021/08/02 11:28:46;;;;;;;3.47;2.25;;;;;;;26.41;43.67;101207.50;4997141;28;20041;-59